createdAt,value
2018-09-30T00:00:54.309Z,11.25
2018-09-30T00:03:22.610Z,11.23
2018-09-30T00:05:50.866Z,11.20
2018-09-30T00:08:19.124Z,11.18
2018-09-30T00:10:47.494Z,11.18
2018-09-30T00:13:15.791Z,11.08
2018-09-30T00:15:44.087Z,11.08
2018-09-30T00:18:12.349Z,11.01
2018-09-30T00:20:40.623Z,10.98
2018-09-30T00:23:08.882Z,10.97
2018-09-30T00:25:42.574Z,10.94
2018-09-30T00:28:10.844Z,10.93
2018-09-30T00:30:39.118Z,10.90
2018-09-30T00:33:07.439Z,10.90
2018-09-30T00:35:35.719Z,10.90
2018-09-30T00:38:04.037Z,10.86
2018-09-30T00:40:32.352Z,10.83
2018-09-30T00:43:00.681Z,10.83
2018-09-30T00:45:28.957Z,10.81
2018-09-30T00:47:57.218Z,10.78
2018-09-30T00:50:25.510Z,10.75
2018-09-30T00:52:53.754Z,10.72
2018-09-30T00:55:22.023Z,10.72
2018-09-30T00:57:50.292Z,10.74
2018-09-30T01:00:18.579Z,10.69
2018-09-30T01:02:46.826Z,10.67
2018-09-30T01:05:15.101Z,10.67
2018-09-30T01:07:43.367Z,10.64
2018-09-30T01:10:11.671Z,10.54
2018-09-30T01:12:39.934Z,10.40
2018-09-30T01:15:08.232Z,10.41
2018-09-30T01:17:36.479Z,10.44
2018-09-30T01:20:04.854Z,10.39
2018-09-30T01:22:33.127Z,10.42
2018-09-30T01:25:01.407Z,10.45
2018-09-30T01:27:29.665Z,10.49
2018-09-30T01:29:57.946Z,10.50
2018-09-30T01:32:26.211Z,10.52
2018-09-30T01:34:54.482Z,10.49
2018-09-30T01:37:22.738Z,10.51
2018-09-30T01:39:51.025Z,10.53
2018-09-30T01:42:19.291Z,10.56
2018-09-30T01:44:47.542Z,10.61
2018-09-30T01:47:15.824Z,10.52
2018-09-30T01:49:44.114Z,10.60
2018-09-30T01:52:23.774Z,10.65
2018-09-30T01:54:52.022Z,10.61
2018-09-30T01:57:20.434Z,10.65
2018-09-30T01:59:48.722Z,10.69
2018-09-30T02:02:16.995Z,10.74
2018-09-30T02:04:45.267Z,10.75
2018-09-30T02:07:13.559Z,10.75
2018-09-30T02:09:41.837Z,10.81
2018-09-30T02:12:10.103Z,10.83
2018-09-30T02:14:38.373Z,10.85
2018-09-30T02:17:06.650Z,10.87
2018-09-30T02:19:34.931Z,10.88
2018-09-30T02:22:03.218Z,10.91
2018-09-30T02:24:31.478Z,10.89
2018-09-30T02:26:59.770Z,10.91
2018-09-30T02:29:28.040Z,10.92
2018-09-30T02:31:56.346Z,10.94
2018-09-30T02:34:24.618Z,10.96
2018-09-30T02:36:52.891Z,10.98
2018-09-30T02:39:21.142Z,11.05
2018-09-30T02:41:49.445Z,11.10
2018-09-30T02:44:17.741Z,11.12
2018-09-30T02:46:46.034Z,11.10
2018-09-30T02:49:14.288Z,11.07
2018-09-30T02:51:42.591Z,11.07
2018-09-30T02:54:10.867Z,11.04
2018-09-30T02:56:39.143Z,11.01
2018-09-30T02:59:07.619Z,11.00
2018-09-30T03:01:35.942Z,10.93
2018-09-30T03:04:04.218Z,10.90
2018-09-30T03:06:37.818Z,10.83
2018-09-30T03:09:15.062Z,10.83
2018-09-30T03:11:43.541Z,10.75
2018-09-30T03:14:13.030Z,10.68
2018-09-30T03:16:41.810Z,10.62
2018-09-30T03:19:10.103Z,10.62
2018-09-30T03:21:38.402Z,10.63
2018-09-30T03:24:06.978Z,10.71
2018-09-30T03:26:35.303Z,10.74
2018-09-30T03:29:03.588Z,10.69
2018-09-30T03:31:31.929Z,10.84
2018-09-30T03:34:00.222Z,10.87
2018-09-30T03:36:28.603Z,10.86
2018-09-30T03:38:56.923Z,10.88
2018-09-30T03:41:25.206Z,10.84
2018-09-30T03:43:53.514Z,10.80
2018-09-30T03:46:21.823Z,10.70
2018-09-30T03:48:50.175Z,10.64
2018-09-30T03:51:18.467Z,10.63
2018-09-30T03:53:46.774Z,10.74
2018-09-30T03:56:15.055Z,10.85
2018-09-30T03:58:43.350Z,10.86
2018-09-30T04:01:11.639Z,10.87
2018-09-30T04:03:39.949Z,10.79
2018-09-30T04:06:08.235Z,10.63
2018-09-30T04:08:36.523Z,10.57
2018-09-30T04:11:04.806Z,10.56
2018-09-30T04:13:33.120Z,10.56
2018-09-30T04:16:01.391Z,10.58
2018-09-30T04:18:29.670Z,10.58
2018-09-30T04:20:57.950Z,10.62
2018-09-30T04:23:26.243Z,10.63
2018-09-30T04:25:54.506Z,10.63
2018-09-30T04:28:22.788Z,10.64
2018-09-30T04:30:51.059Z,10.62
2018-09-30T04:33:19.406Z,10.65
2018-09-30T04:35:47.634Z,10.48
2018-09-30T04:38:15.997Z,10.47
2018-09-30T04:40:44.263Z,10.44
2018-09-30T04:43:12.531Z,10.46
2018-09-30T04:45:40.794Z,10.45
2018-09-30T04:48:09.069Z,10.43
2018-09-30T04:50:37.346Z,10.40
2018-09-30T04:53:05.609Z,10.37
2018-09-30T04:55:33.893Z,10.40
2018-09-30T04:58:02.174Z,10.37
2018-09-30T05:00:30.471Z,10.39
2018-09-30T05:02:58.732Z,10.38
2018-09-30T05:05:27.058Z,10.36
2018-09-30T05:07:55.326Z,10.33
2018-09-30T05:10:23.610Z,10.30
2018-09-30T05:12:51.938Z,10.33
2018-09-30T05:15:20.234Z,10.32
2018-09-30T05:17:48.497Z,10.30
2018-09-30T05:20:16.790Z,10.27
2018-09-30T05:22:45.094Z,10.26
2018-09-30T05:25:13.391Z,10.27
2018-09-30T05:27:41.666Z,10.23
2018-09-30T05:30:09.973Z,10.23
2018-09-30T05:32:38.291Z,10.14
2018-09-30T05:35:06.815Z,10.11
2018-09-30T05:37:35.093Z,10.10
2018-09-30T05:40:03.414Z,10.07
2018-09-30T05:42:31.702Z,10.04
2018-09-30T05:45:00.043Z,10.07
2018-09-30T05:47:28.333Z,10.07
2018-09-30T05:49:56.634Z,10.09
2018-09-30T05:52:24.917Z,10.12
2018-09-30T05:54:53.210Z,10.12
2018-09-30T05:57:21.555Z,10.10
2018-09-30T05:59:49.810Z,10.13
2018-09-30T06:02:18.109Z,10.18
2018-09-30T06:04:46.410Z,10.22
2018-09-30T06:07:14.707Z,10.25
2018-09-30T06:09:42.983Z,10.26
2018-09-30T06:12:11.279Z,10.30
2018-09-30T06:14:39.592Z,10.22
2018-09-30T06:17:07.879Z,10.27
2018-09-30T06:19:36.162Z,10.30
2018-09-30T06:22:04.451Z,10.31
2018-09-30T06:24:32.716Z,10.37
2018-09-30T06:27:01.037Z,10.33
2018-09-30T06:29:29.407Z,10.28
2018-09-30T06:31:57.728Z,10.34
2018-09-30T06:34:25.953Z,10.44
2018-09-30T06:36:54.252Z,10.48
2018-09-30T06:39:22.514Z,10.53
2018-09-30T06:41:50.812Z,10.64
2018-09-30T06:44:19.080Z,10.76
2018-09-30T06:46:47.443Z,10.85
2018-09-30T06:49:15.702Z,10.93
2018-09-30T06:51:44.570Z,10.98
2018-09-30T06:54:12.828Z,11.04
2018-09-30T06:56:41.118Z,11.12
2018-09-30T06:59:09.426Z,11.20
2018-09-30T07:01:37.719Z,11.29
2018-09-30T07:04:06.063Z,11.34
2018-09-30T07:06:34.350Z,11.42
2018-09-30T07:09:02.632Z,11.48
2018-09-30T07:11:30.995Z,11.56
2018-09-30T07:13:59.282Z,11.64
2018-09-30T07:16:27.574Z,11.70
2018-09-30T07:18:55.868Z,11.73
2018-09-30T07:21:24.158Z,11.78
2018-09-30T07:23:52.418Z,11.81
2018-09-30T07:26:20.720Z,11.91
2018-09-30T07:28:49.038Z,12.04
2018-09-30T07:31:17.422Z,12.15
2018-09-30T07:33:45.722Z,12.26
2018-09-30T07:36:14.007Z,12.36
2018-09-30T07:38:42.294Z,12.45
2018-09-30T07:41:10.690Z,12.51
2018-09-30T07:43:39.008Z,12.60
2018-09-30T07:46:07.695Z,12.65
2018-09-30T07:48:36.024Z,12.74
2018-09-30T07:51:04.354Z,12.81
2018-09-30T07:53:32.690Z,12.89
2018-09-30T07:56:01.851Z,12.99
2018-09-30T07:58:30.204Z,13.07
2018-09-30T08:00:58.594Z,13.12
2018-09-30T08:03:27.032Z,13.23
2018-09-30T08:05:55.375Z,13.23
2018-09-30T08:08:23.747Z,13.34
2018-09-30T08:10:52.287Z,13.46
2018-09-30T08:13:20.609Z,13.54
2018-09-30T08:15:48.950Z,13.60
2018-09-30T08:18:17.549Z,13.73
2018-09-30T08:20:45.834Z,13.78
2018-09-30T08:23:14.123Z,13.84
2018-09-30T08:25:42.473Z,13.88
2018-09-30T08:28:10.836Z,13.98
2018-09-30T08:30:39.378Z,13.99
2018-09-30T08:33:07.759Z,14.10
2018-09-30T08:35:36.095Z,14.16
2018-09-30T08:38:09.818Z,14.29
2018-09-30T08:40:43.423Z,14.35
2018-09-30T08:43:11.730Z,14.40
2018-09-30T08:45:40.075Z,14.49
2018-09-30T08:48:08.334Z,14.57
2018-09-30T08:50:36.714Z,14.66
2018-09-30T08:53:05.038Z,14.78
2018-09-30T08:55:33.315Z,14.85
2018-09-30T08:58:01.625Z,14.99
2018-09-30T09:00:29.901Z,15.05
2018-09-30T09:02:58.249Z,15.08
2018-09-30T09:05:26.510Z,15.19
2018-09-30T09:07:54.842Z,15.24
2018-09-30T09:10:23.106Z,15.30
2018-09-30T09:12:51.410Z,15.32
2018-09-30T09:15:19.747Z,15.35
2018-09-30T09:17:48.034Z,15.47
2018-09-30T09:20:16.395Z,15.60
2018-09-30T09:22:44.747Z,15.70
2018-09-30T09:25:13.063Z,15.76
2018-09-30T09:27:41.356Z,15.83
2018-09-30T09:32:27.264Z,15.90
2018-09-30T09:34:56.256Z,15.93
2018-09-30T09:37:25.182Z,16.01
2018-09-30T09:39:54.174Z,16.09
2018-09-30T09:42:23.159Z,16.16
2018-09-30T09:44:52.182Z,16.19
2018-09-30T09:47:21.163Z,16.26
2018-09-30T09:49:50.756Z,16.31
2018-09-30T09:52:19.788Z,16.35
2018-09-30T09:54:48.801Z,16.44
2018-09-30T09:57:17.780Z,16.49
2018-09-30T09:59:46.770Z,16.58
2018-09-30T10:02:15.751Z,16.65
2018-09-30T10:04:44.782Z,16.65
2018-09-30T10:07:13.731Z,16.70
2018-09-30T10:09:42.694Z,16.83
2018-09-30T10:12:11.801Z,16.90
2018-09-30T10:14:40.782Z,16.93
2018-09-30T10:17:09.795Z,17.02
2018-09-30T10:19:38.879Z,17.12
2018-09-30T10:22:08.081Z,17.19
2018-09-30T10:24:37.027Z,17.03
2018-09-30T10:27:06.004Z,17.20
2018-09-30T10:29:35.050Z,17.36
2018-09-30T10:32:04.015Z,17.39
2018-09-30T10:34:32.988Z,17.50
2018-09-30T10:37:02.150Z,17.56
2018-09-30T10:39:31.131Z,17.96
2018-09-30T10:42:00.170Z,18.30
2018-09-30T10:44:29.115Z,18.49
2018-09-30T10:46:58.106Z,18.41
2018-09-30T10:49:27.061Z,18.29
2018-09-30T10:51:57.102Z,18.15
2018-09-30T10:54:26.134Z,18.13
2018-09-30T10:56:55.152Z,18.17
2018-09-30T10:59:24.087Z,18.17
2018-09-30T11:01:53.339Z,18.14
2018-09-30T11:04:22.412Z,18.12
2018-09-30T11:06:51.370Z,18.16
2018-09-30T11:09:20.327Z,18.19
2018-09-30T11:11:49.302Z,18.26
2018-09-30T11:14:18.263Z,18.33
2018-09-30T11:16:47.228Z,18.34
2018-09-30T11:19:16.175Z,18.43
2018-09-30T11:21:45.226Z,18.51
2018-09-30T11:24:14.190Z,18.54
2018-09-30T11:26:43.178Z,18.61
2018-09-30T11:29:12.126Z,18.63
2018-09-30T11:31:41.217Z,18.70
2018-09-30T11:34:10.146Z,18.67
2018-09-30T11:36:39.158Z,18.72
2018-09-30T11:39:09.651Z,18.66
2018-09-30T11:41:38.619Z,18.60
2018-09-30T11:44:07.570Z,18.70
2018-09-30T11:46:36.536Z,18.66
2018-09-30T11:49:06.085Z,18.71
2018-09-30T11:51:35.067Z,18.74
2018-09-30T11:54:04.082Z,18.78
2018-09-30T11:56:33.350Z,18.89
2018-09-30T11:59:02.590Z,18.98
2018-09-30T12:01:31.526Z,19.09
2018-09-30T12:04:00.498Z,19.09
2018-09-30T12:06:29.458Z,19.21
2018-09-30T12:08:58.437Z,19.28
2018-09-30T12:11:27.486Z,19.22
2018-09-30T12:13:56.467Z,19.35
2018-09-30T12:16:25.427Z,19.44
2018-09-30T12:18:54.410Z,19.40
2018-09-30T12:21:23.370Z,19.49
2018-09-30T12:23:52.351Z,19.47
2018-09-30T12:26:21.330Z,19.62
2018-09-30T12:28:50.306Z,19.71
2018-09-30T12:31:19.238Z,19.79
2018-09-30T12:33:48.250Z,19.84
2018-09-30T12:36:17.210Z,19.97
2018-09-30T12:38:46.189Z,20.04
2018-09-30T12:41:15.154Z,20.05
2018-09-30T12:43:44.123Z,20.14
2018-09-30T12:46:13.647Z,20.13
2018-09-30T12:48:42.674Z,20.32
2018-09-30T12:51:11.639Z,20.30
2018-09-30T12:53:40.615Z,20.43
2018-09-30T12:56:09.573Z,20.53
2018-09-30T12:58:38.584Z,20.49
2018-09-30T13:01:07.550Z,20.53
2018-09-30T13:03:36.510Z,20.65
2018-09-30T13:06:05.466Z,20.77
2018-09-30T13:08:34.527Z,20.86
2018-09-30T13:11:03.474Z,20.83
2018-09-30T13:13:32.502Z,21.00
2018-09-30T13:16:01.446Z,21.19
2018-09-30T13:18:30.374Z,21.13
2018-09-30T13:20:59.670Z,21.06
2018-09-30T13:23:28.621Z,21.16
2018-09-30T13:25:58.178Z,21.14
2018-09-30T13:28:27.087Z,21.28
2018-09-30T13:30:56.035Z,21.18
2018-09-30T13:33:25.093Z,21.26
2018-09-30T13:35:54.046Z,21.34
2018-09-30T13:38:22.987Z,21.38
2018-09-30T13:40:52.102Z,21.48
2018-09-30T13:43:20.982Z,21.54
2018-09-30T13:45:49.942Z,21.61
2018-09-30T13:48:18.882Z,21.81
2018-09-30T13:50:47.839Z,21.82
2018-09-30T13:53:16.775Z,21.67
2018-09-30T13:55:45.746Z,21.63
2018-09-30T13:58:14.755Z,21.76
2018-09-30T14:00:43.715Z,21.68
2018-09-30T14:03:12.650Z,21.62
2018-09-30T14:05:41.602Z,21.55
2018-09-30T14:08:10.534Z,21.51
2018-09-30T14:10:39.486Z,21.29
2018-09-30T14:13:08.462Z,21.33
2018-09-30T14:15:37.486Z,21.43
2018-09-30T14:18:06.444Z,21.43
2018-09-30T14:20:35.403Z,21.33
2018-09-30T14:23:04.413Z,21.40
2018-09-30T14:25:33.429Z,21.28
2018-09-30T14:28:02.371Z,21.16
2018-09-30T14:30:31.398Z,21.01
2018-09-30T14:33:00.400Z,20.76
2018-09-30T14:35:30.363Z,20.76
2018-09-30T14:37:59.306Z,20.80
2018-09-30T14:40:28.283Z,20.80
2018-09-30T14:42:57.222Z,20.70
2018-09-30T14:45:26.278Z,20.67
2018-09-30T14:47:55.268Z,20.62
2018-09-30T14:50:24.222Z,20.64
2018-09-30T14:52:53.222Z,20.61
2018-09-30T14:55:22.186Z,20.40
2018-09-30T14:57:51.275Z,20.38
2018-09-30T15:00:20.233Z,20.44
2018-09-30T15:02:49.245Z,20.39
2018-09-30T15:05:18.198Z,20.42
2018-09-30T15:07:47.166Z,20.52
2018-09-30T15:10:16.178Z,20.58
2018-09-30T15:12:45.206Z,20.57
2018-09-30T15:15:14.218Z,20.59
2018-09-30T15:17:43.211Z,20.58
2018-09-30T15:20:12.186Z,20.50
2018-09-30T15:22:41.983Z,20.49
2018-09-30T15:25:10.943Z,20.55
2018-09-30T15:27:39.912Z,20.51
2018-09-30T15:30:08.863Z,20.52
2018-09-30T15:32:37.851Z,20.47
2018-09-30T15:35:06.806Z,20.35
2018-09-30T15:37:35.771Z,20.32
2018-09-30T15:40:04.758Z,20.29
2018-09-30T15:42:33.778Z,20.25
2018-09-30T15:45:02.798Z,20.26
2018-09-30T15:47:31.755Z,19.99
2018-09-30T15:50:00.721Z,19.83
2018-09-30T15:52:29.747Z,19.88
2018-09-30T15:54:58.697Z,19.90
2018-09-30T15:57:27.714Z,19.83
2018-09-30T15:59:56.677Z,19.66
2018-09-30T16:02:25.663Z,19.62
2018-09-30T16:04:54.634Z,19.49
2018-09-30T16:07:23.619Z,19.55
2018-09-30T16:09:52.568Z,19.36
2018-09-30T16:12:21.510Z,19.36
2018-09-30T16:14:50.515Z,19.25
2018-09-30T16:17:19.458Z,19.27
2018-09-30T16:19:48.423Z,19.12
2018-09-30T16:22:17.378Z,19.07
2018-09-30T16:24:46.690Z,18.95
2018-09-30T16:27:15.654Z,18.53
2018-09-30T16:29:44.622Z,18.44
2018-09-30T16:32:13.635Z,18.47
2018-09-30T16:34:42.643Z,18.47
2018-09-30T16:37:11.606Z,18.11
2018-09-30T16:39:40.622Z,18.22
2018-09-30T16:42:09.593Z,18.03
2018-09-30T16:44:38.638Z,18.07
2018-09-30T16:47:07.592Z,18.11
2018-09-30T16:49:36.550Z,18.13
2018-09-30T16:52:05.498Z,18.18
2018-09-30T16:54:34.471Z,18.22
2018-09-30T16:57:03.919Z,18.27
2018-09-30T16:59:32.879Z,18.33
2018-09-30T17:02:01.822Z,18.35
2018-09-30T17:04:30.796Z,18.34
2018-09-30T17:06:59.742Z,18.33
2018-09-30T17:09:28.738Z,18.32
2018-09-30T17:11:57.703Z,18.32
2018-09-30T17:14:26.741Z,18.32
2018-09-30T17:16:55.798Z,18.28
2018-09-30T17:19:24.775Z,18.28
2018-09-30T17:21:53.799Z,18.28
2018-09-30T17:24:22.773Z,18.35
2018-09-30T17:26:51.715Z,18.41
2018-09-30T17:29:20.662Z,18.41
2018-09-30T17:31:49.587Z,18.42
2018-09-30T17:34:19.558Z,18.43
2018-09-30T17:36:48.480Z,18.40
2018-09-30T17:39:17.539Z,18.36
2018-09-30T17:41:46.471Z,18.33
2018-09-30T17:44:15.458Z,18.46
2018-09-30T17:46:44.406Z,18.53
2018-09-30T17:49:13.352Z,18.37
2018-09-30T17:51:42.379Z,18.27
2018-09-30T17:54:11.374Z,18.22
2018-09-30T17:56:40.311Z,18.11
2018-09-30T17:59:09.327Z,17.97
2018-09-30T18:01:38.519Z,17.92
2018-09-30T18:04:07.530Z,17.88
2018-09-30T18:06:36.515Z,17.81
2018-09-30T18:09:09.107Z,17.76
2018-09-30T18:11:38.187Z,17.63
2018-09-30T18:14:07.212Z,17.59
2018-09-30T18:16:36.178Z,17.55
2018-09-30T18:19:05.262Z,17.50
2018-09-30T18:21:34.271Z,17.50
2018-09-30T18:24:03.221Z,17.35
2018-09-30T18:26:32.210Z,17.22
2018-09-30T18:29:01.146Z,17.17
2018-09-30T18:31:30.255Z,17.16
2018-09-30T18:33:59.222Z,17.20
2018-09-30T18:36:28.185Z,17.16
2018-09-30T18:38:57.160Z,17.12
2018-09-30T18:41:26.137Z,17.07
2018-09-30T18:43:55.099Z,17.04
2018-09-30T18:46:24.106Z,17.01
2018-09-30T18:48:54.136Z,16.98
2018-09-30T18:51:23.122Z,16.95
2018-09-30T18:53:52.087Z,16.92
2018-09-30T18:56:21.181Z,16.87
2018-09-30T18:58:50.131Z,16.84
2018-09-30T19:01:19.102Z,16.51
2018-09-30T19:03:48.170Z,16.76
2018-09-30T19:06:17.155Z,16.71
2018-09-30T19:08:46.190Z,16.69
2018-09-30T19:11:15.171Z,16.66
2018-09-30T19:13:44.215Z,16.62
2018-09-30T19:16:13.330Z,16.54
2018-09-30T19:18:42.122Z,16.48
2018-09-30T19:21:11.117Z,16.42
2018-09-30T19:23:40.970Z,16.35
2018-09-30T19:26:09.949Z,16.29
2018-09-30T19:28:38.914Z,16.24
2018-09-30T19:31:08.075Z,16.20
2018-09-30T19:33:37.011Z,16.15
2018-09-30T19:36:06.014Z,16.11
2018-09-30T19:38:34.930Z,16.05
2018-09-30T19:41:03.886Z,16.00
2018-09-30T19:43:32.823Z,15.99
2018-09-30T19:46:01.796Z,15.91
2018-09-30T19:48:30.765Z,15.86
2018-09-30T19:50:59.707Z,15.81
2018-09-30T19:53:28.634Z,15.78
2018-09-30T19:55:57.633Z,15.75
2018-09-30T19:58:26.538Z,15.72
2018-09-30T20:00:55.473Z,15.65
2018-09-30T20:03:24.442Z,15.55
2018-09-30T20:05:53.371Z,15.51
2018-09-30T20:08:22.334Z,15.44
2018-09-30T20:10:51.318Z,15.42
2018-09-30T20:13:20.294Z,15.41
2018-09-30T20:15:49.266Z,15.34
2018-09-30T20:18:18.299Z,15.34
2018-09-30T20:20:47.300Z,15.27
2018-09-30T20:23:16.276Z,15.23
2018-09-30T20:25:45.236Z,15.21
2018-09-30T20:28:14.202Z,15.19
2018-09-30T20:30:43.174Z,15.04
2018-09-30T20:33:12.147Z,14.94
2018-09-30T20:35:41.091Z,14.96
2018-09-30T20:38:10.059Z,15.02
2018-09-30T20:40:40.831Z,15.05
2018-09-30T20:43:09.810Z,15.07
2018-09-30T20:45:39.405Z,15.11
2018-09-30T20:48:08.931Z,15.08
2018-09-30T20:50:37.996Z,14.95
2018-09-30T20:53:06.991Z,14.97
2018-09-30T20:55:36.193Z,14.92
2018-09-30T20:58:05.179Z,14.90
2018-09-30T21:00:34.132Z,14.87
2018-09-30T21:03:03.090Z,14.88
2018-09-30T21:06:39.667Z,14.88
2018-09-30T21:09:10.786Z,14.75
2018-09-30T21:11:39.879Z,14.76
2018-09-30T21:14:08.849Z,14.74
2018-09-30T21:16:37.866Z,14.74
2018-09-30T21:19:06.814Z,14.77
2018-09-30T21:21:42.320Z,14.70
2018-09-30T21:24:11.309Z,14.69
2018-09-30T21:26:40.223Z,14.64
2018-09-30T21:29:09.165Z,14.67
2018-09-30T21:31:38.082Z,14.70
2018-09-30T21:34:07.075Z,14.64
2018-09-30T21:36:36.087Z,14.57
2018-09-30T21:39:08.386Z,14.60
2018-09-30T21:41:37.415Z,14.64
2018-09-30T21:44:06.506Z,14.63
2018-09-30T21:46:35.446Z,14.58
2018-09-30T21:49:04.440Z,14.43
2018-09-30T21:51:33.394Z,14.24
2018-09-30T21:54:02.438Z,14.16
2018-09-30T21:56:31.362Z,14.18
2018-09-30T21:59:00.302Z,14.11
2018-09-30T22:01:29.366Z,14.12
2018-09-30T22:03:58.306Z,14.00
2018-09-30T22:06:27.366Z,13.91
2018-09-30T22:08:56.330Z,13.88
2018-09-30T22:11:25.258Z,13.81
2018-09-30T22:13:54.218Z,13.83
2018-09-30T22:16:23.178Z,13.85
2018-09-30T22:18:52.177Z,13.92
2018-09-30T22:21:21.104Z,13.83
2018-09-30T22:23:50.043Z,13.93
2018-09-30T22:26:19.055Z,13.99
2018-09-30T22:28:48.002Z,14.00
2018-09-30T22:31:16.919Z,14.05
2018-09-30T22:33:45.864Z,14.08
2018-09-30T22:36:14.779Z,14.13
2018-09-30T22:38:43.731Z,14.17
2018-09-30T22:41:12.647Z,14.21
2018-09-30T22:43:41.614Z,14.26
2018-09-30T22:46:10.581Z,14.25
2018-09-30T22:48:39.555Z,14.21
2018-09-30T22:51:08.471Z,14.14
2018-09-30T22:53:37.438Z,14.11
2018-09-30T22:56:06.374Z,14.11
2018-09-30T22:58:35.311Z,14.13
2018-09-30T23:01:04.231Z,14.14
2018-09-30T23:03:33.199Z,14.13
2018-09-30T23:06:02.166Z,14.11
2018-09-30T23:08:31.106Z,14.07
2018-09-30T23:11:00.050Z,14.06
2018-09-30T23:13:29.030Z,14.10
2018-09-30T23:15:57.977Z,14.12
2018-09-30T23:18:27.062Z,14.14
2018-09-30T23:20:56.001Z,14.17
2018-09-30T23:23:24.966Z,14.19
2018-09-30T23:25:53.998Z,14.18
2018-09-30T23:28:22.963Z,14.14
2018-09-30T23:30:51.949Z,14.18
2018-09-30T23:33:20.919Z,14.16
2018-09-30T23:35:49.884Z,14.17
2018-09-30T23:38:18.866Z,14.20
2018-09-30T23:40:47.809Z,14.21
2018-09-30T23:43:16.752Z,14.18
2018-09-30T23:45:45.763Z,14.18
2018-09-30T23:48:14.708Z,14.02
2018-09-30T23:50:44.131Z,14.00
2018-09-30T23:53:13.071Z,14.04
2018-09-30T23:55:42.058Z,14.06
2018-09-30T23:58:14.618Z,14.09
